createdAt,value
2022-08-12T00:00:34.432Z,9.242367
2022-08-12T00:02:03.225Z,9.242391
2022-08-12T00:02:35.385Z,9.242411
2022-08-12T00:03:34.458Z,9.242343
2022-08-12T00:04:34.378Z,9.242407
2022-08-12T00:05:34.384Z,9.242451
2022-08-12T00:06:34.461Z,9.242409
2022-08-12T00:07:34.352Z,9.242414
2022-08-12T00:08:36.741Z,9.242383
2022-08-12T00:09:34.343Z,9.242410
2022-08-12T00:10:34.350Z,9.242389
2022-08-12T00:11:34.335Z,9.242380
2022-08-12T00:12:34.431Z,9.242403
2022-08-12T00:13:34.310Z,9.242406
2022-08-12T00:14:34.323Z,9.242447
2022-08-12T00:15:34.292Z,9.242466
2022-08-12T00:16:34.297Z,9.242423
2022-08-12T00:17:34.363Z,9.242443
2022-08-12T00:18:34.276Z,9.242414
2022-08-12T00:19:34.292Z,9.242323
2022-08-12T00:20:34.264Z,9.242325
2022-08-12T00:21:35.923Z,9.242337
2022-08-12T00:22:34.290Z,9.242500
2022-08-12T00:23:34.271Z,9.242422
2022-08-12T00:24:34.234Z,9.242362
2022-08-12T00:26:05.440Z,9.242396
2022-08-12T00:26:35.223Z,9.242462
2022-08-12T00:27:44.095Z,9.242449
2022-08-12T00:28:35.250Z,9.242460
2022-08-12T00:29:34.217Z,9.242444
2022-08-12T00:30:34.223Z,9.242475
2022-08-12T00:31:34.186Z,9.242435
2022-08-12T00:32:36.357Z,9.242426
2022-08-12T00:33:38.697Z,9.242421
2022-08-12T00:34:35.245Z,9.242425
2022-08-12T00:35:36.733Z,9.242455
2022-08-12T00:36:36.011Z,9.242474
2022-08-12T00:37:34.141Z,9.242509
2022-08-12T00:38:34.136Z,9.242430
2022-08-12T00:39:34.254Z,9.242488
2022-08-12T00:40:34.123Z,9.242426
2022-08-12T00:41:34.106Z,9.242462
2022-08-12T00:42:34.173Z,9.242476
2022-08-12T00:43:34.091Z,9.242401
2022-08-12T00:44:34.115Z,9.242449
2022-08-12T00:45:34.135Z,9.242440
2022-08-12T00:46:34.078Z,9.242517
2022-08-12T00:47:34.068Z,9.242454
2022-08-12T00:48:34.071Z,9.242413
2022-08-12T00:49:34.064Z,9.242497
2022-08-12T00:50:34.099Z,9.242490
2022-08-12T00:51:34.037Z,9.242397
2022-08-12T00:52:34.153Z,9.242375
2022-08-12T00:53:34.087Z,9.242421
2022-08-12T00:54:34.028Z,9.242435
2022-08-12T00:55:34.026Z,9.242470
2022-08-12T00:56:34.057Z,9.242417
2022-08-12T00:57:34.009Z,9.242456
2022-08-12T00:58:34.024Z,9.242481
2022-08-12T00:59:33.988Z,9.242401
2022-08-12T01:00:33.986Z,9.242405
2022-08-12T01:02:11.562Z,9.242481
2022-08-12T01:02:35.026Z,9.242492
2022-08-12T01:03:33.999Z,9.242404
2022-08-12T01:04:33.950Z,9.242462
2022-08-12T01:05:33.959Z,9.242481
2022-08-12T01:06:33.933Z,9.242483
2022-08-12T01:07:33.977Z,9.242420
2022-08-12T01:08:33.917Z,9.242399
2022-08-12T01:09:33.922Z,9.242410
2022-08-12T01:10:33.928Z,9.242442
2022-08-12T01:11:33.901Z,9.242414
2022-08-12T01:12:33.941Z,9.242460
2022-08-12T01:13:33.884Z,9.242447
2022-08-12T01:14:33.878Z,9.242414
2022-08-12T01:15:33.866Z,9.242332
2022-08-12T01:16:33.867Z,9.242443
2022-08-12T01:17:33.853Z,9.242347
2022-08-12T01:18:33.937Z,9.242476
2022-08-12T01:19:33.831Z,9.242458
2022-08-12T01:20:33.837Z,9.242449
2022-08-12T01:21:33.820Z,9.242396
2022-08-12T01:22:33.837Z,9.242483
2022-08-12T01:23:33.884Z,9.242378
2022-08-12T01:24:33.814Z,9.242463
2022-08-12T01:25:36.428Z,9.242419
2022-08-12T01:26:33.791Z,9.242392
2022-08-12T01:27:33.781Z,9.242406
2022-08-12T01:28:33.781Z,9.242401
2022-08-12T01:29:33.801Z,9.242369
2022-08-12T01:30:33.762Z,9.242394
2022-08-12T01:31:33.773Z,9.242422
2022-08-12T01:32:33.771Z,9.242327
2022-08-12T01:33:33.763Z,9.242397
2022-08-12T01:34:36.256Z,9.242444
2022-08-12T01:35:33.720Z,9.242446
2022-08-12T01:36:33.718Z,9.242406
2022-08-12T01:37:33.704Z,9.242392
2022-08-12T01:38:33.708Z,9.242374
2022-08-12T01:39:33.724Z,9.242429
2022-08-12T01:40:37.895Z,9.242408
2022-08-12T01:41:34.681Z,9.242413
2022-08-12T01:42:33.676Z,9.242403
2022-08-12T01:43:33.652Z,9.242355
2022-08-12T01:44:33.661Z,9.242396
2022-08-12T01:45:43.361Z,9.242439
2022-08-12T01:46:34.650Z,9.242320
2022-08-12T01:47:33.639Z,9.242333
2022-08-12T01:48:33.629Z,9.242322
2022-08-12T01:49:33.617Z,9.242320
2022-08-12T01:50:33.626Z,9.242351
2022-08-12T01:52:15.013Z,9.242385
2022-08-12T01:52:34.601Z,9.242334
2022-08-12T01:53:50.400Z,9.242417
2022-08-12T01:54:34.603Z,9.242380
2022-08-12T01:55:33.568Z,9.242399
2022-08-12T01:56:33.618Z,9.242392
2022-08-12T01:57:59.312Z,9.242350
2022-08-12T01:58:34.559Z,9.242425
2022-08-12T01:59:33.557Z,9.242411
2022-08-12T02:00:43.568Z,9.242324
2022-08-12T02:01:34.670Z,9.242369
2022-08-12T02:02:33.546Z,9.242413
2022-08-12T02:03:33.592Z,9.242451
2022-08-12T02:04:33.515Z,9.242349
2022-08-12T02:05:33.512Z,9.242352
2022-08-12T02:06:33.509Z,9.242351
2022-08-12T02:07:33.619Z,9.242377
2022-08-12T02:08:33.495Z,9.242347
2022-08-12T02:09:33.496Z,9.242362
2022-08-12T02:10:50.774Z,9.242377
2022-08-12T02:11:34.475Z,9.242330
2022-08-12T02:12:33.528Z,9.242324
2022-08-12T02:13:48.996Z,9.242373
2022-08-12T02:14:34.454Z,9.242395
2022-08-12T02:15:33.444Z,9.242415
2022-08-12T02:16:33.439Z,9.242416
2022-08-12T02:17:55.986Z,9.242423
2022-08-12T02:18:34.488Z,9.242400
2022-08-12T02:19:33.408Z,9.242380
2022-08-12T02:20:35.410Z,9.242386
2022-08-12T02:21:34.398Z,9.242414
2022-08-12T02:22:33.399Z,9.242389
2022-08-12T02:23:33.422Z,9.242375
2022-08-12T02:24:33.392Z,9.242381
2022-08-12T02:25:33.365Z,9.242388
2022-08-12T02:26:33.354Z,9.242362
2022-08-12T02:27:33.351Z,9.242445
2022-08-12T02:28:33.360Z,9.242405
2022-08-12T02:29:33.378Z,9.242365
2022-08-12T02:30:41.206Z,9.242373
2022-08-12T02:31:34.326Z,9.242373
2022-08-12T02:32:33.315Z,9.242363
2022-08-12T02:33:33.302Z,9.242429
2022-08-12T02:34:33.342Z,9.242400
2022-08-12T02:35:33.300Z,9.242385
2022-08-12T02:36:33.283Z,9.242324
2022-08-12T02:37:33.268Z,9.242316
2022-08-12T02:38:33.255Z,9.242399
2022-08-12T02:39:33.304Z,9.242402
2022-08-12T02:40:33.295Z,9.242331
2022-08-12T02:41:33.249Z,9.242347
2022-08-12T02:42:33.245Z,9.242311
2022-08-12T02:43:33.239Z,9.242414
2022-08-12T02:44:33.227Z,9.242437
2022-08-12T02:45:33.265Z,9.242379
2022-08-12T02:46:33.219Z,9.242454
2022-08-12T02:47:59.319Z,9.242320
2022-08-12T02:48:34.194Z,9.242301
2022-08-12T02:49:33.187Z,9.242373
2022-08-12T02:50:33.207Z,9.242414
2022-08-12T02:51:33.232Z,9.242355
2022-08-12T02:52:33.174Z,9.242319
2022-08-12T02:53:33.163Z,9.242293
2022-08-12T02:54:33.164Z,9.242317
2022-08-12T02:55:34.761Z,9.242420
2022-08-12T02:56:33.170Z,9.242287
2022-08-12T02:57:33.135Z,9.242306
2022-08-12T02:58:33.663Z,9.242186
2022-08-12T02:59:33.116Z,9.242209
2022-08-12T03:00:33.114Z,9.242083
2022-08-12T03:01:33.164Z,9.241912
2022-08-12T03:02:33.138Z,9.241982
2022-08-12T03:03:33.103Z,9.241969
2022-08-12T03:04:33.080Z,9.242023
2022-08-12T03:05:33.070Z,9.242167
2022-08-12T03:06:34.060Z,9.242036
2022-08-12T03:07:55.789Z,9.242069
2022-08-12T03:08:34.041Z,9.242211
2022-08-12T03:09:38.193Z,9.242079
2022-08-12T03:10:37.762Z,9.242110
2022-08-12T03:11:33.032Z,9.242315
2022-08-12T03:12:34.237Z,9.242337
2022-08-12T03:13:33.079Z,9.242325
2022-08-12T03:14:33.009Z,9.242370
2022-08-12T03:15:33.002Z,9.242366
2022-08-12T03:16:33.263Z,9.242359
2022-08-12T03:17:32.987Z,9.242309
2022-08-12T03:18:33.057Z,9.242404
2022-08-12T03:19:32.972Z,9.242509
2022-08-12T03:20:32.969Z,9.242405
2022-08-12T03:22:05.622Z,9.242326
2022-08-12T03:22:33.938Z,9.242383
2022-08-12T03:23:32.941Z,9.242369
2022-08-12T03:24:33.018Z,9.242372
2022-08-12T03:25:32.924Z,9.242279
2022-08-12T03:26:32.916Z,9.242334
2022-08-12T03:27:32.916Z,9.242332
2022-08-12T03:28:32.913Z,9.242424
2022-08-12T03:29:32.953Z,9.242337
2022-08-12T03:30:33.898Z,9.242448
2022-08-12T03:31:32.899Z,9.242439
2022-08-12T03:32:35.097Z,9.242419
2022-08-12T03:33:32.882Z,9.242471
2022-08-12T03:34:32.865Z,9.242445
2022-08-12T03:35:40.218Z,9.242323
2022-08-12T03:36:33.860Z,9.242447
2022-08-12T03:37:32.839Z,9.242384
2022-08-12T03:38:32.833Z,9.242376
2022-08-12T03:39:36.071Z,9.242406
2022-08-12T03:40:32.867Z,9.242346
2022-08-12T03:41:32.820Z,9.242380
2022-08-12T03:42:32.808Z,9.242287
2022-08-12T03:43:32.799Z,9.242356
2022-08-12T03:44:32.814Z,9.242452
2022-08-12T03:45:32.795Z,9.242422
2022-08-12T03:46:32.826Z,9.242329
2022-08-12T03:47:32.785Z,9.242287
2022-08-12T03:48:32.769Z,9.242346
2022-08-12T03:49:32.767Z,9.242289
2022-08-12T03:50:32.767Z,9.242298
2022-08-12T03:51:32.789Z,9.242356
2022-08-12T03:52:32.741Z,9.242347
2022-08-12T03:53:32.734Z,9.242342
2022-08-12T03:54:32.714Z,9.242514
2022-08-12T03:55:32.716Z,9.242338
2022-08-12T03:56:32.714Z,9.242238
2022-08-12T03:57:32.751Z,9.242229
2022-08-12T03:58:32.701Z,9.242335
2022-08-12T03:59:32.695Z,9.242332
2022-08-12T04:00:32.780Z,9.242361
2022-08-12T04:01:32.763Z,9.242431
2022-08-12T04:02:32.707Z,9.242316
2022-08-12T04:03:32.659Z,9.242273
2022-08-12T04:04:32.663Z,9.242357
2022-08-12T04:05:54.553Z,9.242343
2022-08-12T04:06:35.624Z,9.242250
2022-08-12T04:07:32.630Z,9.242310
2022-08-12T04:08:32.665Z,9.242294
2022-08-12T04:09:32.623Z,9.242243
2022-08-12T04:10:32.605Z,9.242395
2022-08-12T04:11:32.617Z,9.242346
2022-08-12T04:12:33.251Z,9.242362
2022-08-12T04:13:32.640Z,9.242406
2022-08-12T04:14:32.598Z,9.242446
2022-08-12T04:15:32.570Z,9.242465
2022-08-12T04:16:32.575Z,9.242386
2022-08-12T04:17:32.574Z,9.242332
2022-08-12T04:18:32.543Z,9.242258
2022-08-12T04:19:32.646Z,9.242381
2022-08-12T04:20:32.542Z,9.242461
2022-08-12T04:21:32.537Z,9.242610
2022-08-12T04:22:32.633Z,9.242553
2022-08-12T04:23:32.542Z,9.242517
2022-08-12T04:24:32.556Z,9.242426
2022-08-12T04:25:32.508Z,9.242317
2022-08-12T04:26:32.514Z,9.242386
2022-08-12T04:27:32.865Z,9.242358
2022-08-12T04:28:32.706Z,9.242332
2022-08-12T04:30:31.657Z,9.242316
2022-08-12T04:30:33.888Z,9.242279
2022-08-12T04:31:32.469Z,9.242252
2022-08-12T04:32:32.462Z,9.242240
2022-08-12T04:33:32.459Z,9.242311
2022-08-12T04:34:32.433Z,9.242334
2022-08-12T04:35:32.464Z,9.242413
2022-08-12T04:36:32.427Z,9.242406
2022-08-12T04:38:00.368Z,9.242418
2022-08-12T04:38:33.404Z,9.242409
2022-08-12T04:39:32.456Z,9.242405
2022-08-12T04:40:32.452Z,9.242379
2022-08-12T04:41:32.431Z,9.242396
2022-08-12T04:42:32.387Z,9.242412
2022-08-12T04:43:53.742Z,9.242405
2022-08-12T04:44:33.387Z,9.242455
2022-08-12T04:45:32.371Z,9.242504
2022-08-12T04:46:34.491Z,9.242516
2022-08-12T04:47:32.349Z,9.242464
2022-08-12T04:48:32.338Z,9.242462
2022-08-12T04:49:32.337Z,9.242463
2022-08-12T04:50:36.048Z,9.242464
2022-08-12T04:51:32.324Z,9.242471
2022-08-12T04:52:34.947Z,9.242484
2022-08-12T04:53:33.304Z,9.242369
2022-08-12T04:54:32.288Z,9.242289
2022-08-12T04:55:32.291Z,9.242390
2022-08-12T04:56:35.452Z,9.242344
2022-08-12T04:57:32.317Z,9.242348
2022-08-12T04:58:32.253Z,9.242330
2022-08-12T04:59:32.258Z,9.242150
2022-08-12T05:00:33.252Z,9.242215
2022-08-12T05:01:32.248Z,9.242377
2022-08-12T05:02:32.350Z,9.242404
2022-08-12T05:03:46.814Z,9.242383
2022-08-12T05:04:33.219Z,9.242301
2022-08-12T05:05:35.848Z,9.242238
2022-08-12T05:06:33.204Z,9.242385
2022-08-12T05:07:32.207Z,9.242372
2022-08-12T05:08:32.234Z,9.242410
2022-08-12T05:10:00.105Z,9.242376
2022-08-12T05:10:35.535Z,9.242310
2022-08-12T05:11:32.170Z,9.242397
2022-08-12T05:12:32.160Z,9.242393
2022-08-12T05:13:32.157Z,9.242440
2022-08-12T05:14:37.028Z,9.242455
2022-08-12T05:15:33.141Z,9.242391
2022-08-12T05:16:34.135Z,9.242345
2022-08-12T05:17:32.130Z,9.242347
2022-08-12T05:18:32.114Z,9.242325
2022-08-12T05:19:32.189Z,9.242397
2022-08-12T05:20:32.108Z,9.242360
2022-08-12T05:21:32.104Z,9.242348
2022-08-12T05:22:32.085Z,9.242342
2022-08-12T05:23:33.093Z,9.242279
2022-08-12T05:24:32.083Z,9.242400
2022-08-12T05:25:32.085Z,9.242402
2022-08-12T05:26:33.053Z,9.242352
2022-08-12T05:27:32.053Z,9.242476
2022-08-12T05:28:32.060Z,9.242387
2022-08-12T05:30:06.893Z,9.242369
2022-08-12T05:30:33.060Z,9.242319
2022-08-12T05:31:42.328Z,9.242288
2022-08-12T05:32:33.018Z,9.242396
2022-08-12T05:33:32.013Z,9.242290
2022-08-12T05:34:31.995Z,9.242381
2022-08-12T05:35:32.026Z,9.242397
2022-08-12T05:36:32.528Z,9.242332
2022-08-12T05:37:31.975Z,9.242357
2022-08-12T05:38:31.976Z,9.242420
2022-08-12T05:39:32.007Z,9.242425
2022-08-12T05:40:32.038Z,9.242393
2022-08-12T05:41:31.958Z,9.242478
2022-08-12T05:42:33.720Z,9.242386
2022-08-12T05:43:31.931Z,9.242381
2022-08-12T05:44:31.942Z,9.242316
2022-08-12T05:45:31.987Z,9.242403
2022-08-12T05:46:31.938Z,9.242349
2022-08-12T05:47:42.743Z,9.242361
2022-08-12T05:48:32.909Z,9.242294
2022-08-12T05:49:31.895Z,9.242337
2022-08-12T05:50:31.882Z,9.242319
2022-08-12T05:51:39.726Z,9.242316
2022-08-12T05:52:32.865Z,9.242423
2022-08-12T05:53:31.897Z,9.242307
2022-08-12T05:54:54.643Z,9.242275
2022-08-12T05:55:33.851Z,9.242280
2022-08-12T05:56:31.917Z,9.242260
2022-08-12T05:57:31.842Z,9.242351
2022-08-12T05:58:31.845Z,9.242358
2022-08-12T05:59:31.817Z,9.242331
2022-08-12T06:00:31.811Z,9.242376
2022-08-12T06:02:12.323Z,9.242304
2022-08-12T06:02:32.826Z,9.242330
2022-08-12T06:03:31.858Z,9.242396
2022-08-12T06:04:31.791Z,9.242348
2022-08-12T06:05:31.771Z,9.242314
2022-08-12T06:06:32.573Z,9.242299
2022-08-12T06:07:59.689Z,9.242325
2022-08-12T06:08:32.782Z,9.242376
2022-08-12T06:09:31.752Z,9.242377
2022-08-12T06:10:33.006Z,9.242376
2022-08-12T06:11:31.755Z,9.242367
2022-08-12T06:12:31.724Z,9.242243
2022-08-12T06:13:53.992Z,9.242391
2022-08-12T06:14:32.722Z,9.242285
2022-08-12T06:15:31.709Z,9.242292
2022-08-12T06:16:31.743Z,9.242258
2022-08-12T06:17:31.703Z,9.242192
2022-08-12T06:18:31.706Z,9.242202
2022-08-12T06:20:26.771Z,9.242192
2022-08-12T06:20:33.711Z,9.242229
2022-08-12T06:21:31.706Z,9.242303
2022-08-12T06:22:31.650Z,9.242314
2022-08-12T06:23:31.662Z,9.242309
2022-08-12T06:24:31.638Z,9.242287
2022-08-12T06:25:31.649Z,9.242277
2022-08-12T06:26:31.647Z,9.242232
2022-08-12T06:27:31.651Z,9.242251
2022-08-12T06:28:31.652Z,9.242143
2022-08-12T06:30:06.496Z,9.242212
2022-08-12T06:30:37.814Z,9.242181
2022-08-12T06:31:33.596Z,9.242133
2022-08-12T06:32:31.621Z,9.242214
2022-08-12T06:33:57.555Z,9.242209
2022-08-12T06:35:25.432Z,9.242236
2022-08-12T06:35:47.685Z,9.242270
2022-08-12T06:36:33.523Z,9.242127
2022-08-12T06:37:31.580Z,9.242401
2022-08-12T06:38:31.554Z,9.242212
2022-08-12T06:39:31.571Z,9.242239
2022-08-12T06:40:31.534Z,9.242304
2022-08-12T06:41:31.525Z,9.242344
2022-08-12T06:42:33.463Z,9.242397
2022-08-12T06:44:05.157Z,9.242360
2022-08-12T06:44:32.588Z,9.242471
2022-08-12T06:45:45.580Z,9.242267
2022-08-12T06:46:32.482Z,9.242309
2022-08-12T06:47:31.497Z,9.242167
2022-08-12T06:48:31.474Z,9.242488
2022-08-12T06:49:31.464Z,9.242468
2022-08-12T06:50:31.471Z,9.242455
2022-08-12T06:51:31.449Z,9.242450
2022-08-12T06:52:31.534Z,9.242471
2022-08-12T06:53:31.425Z,9.242356
2022-08-12T06:54:32.274Z,9.242540
2022-08-12T06:55:31.421Z,9.242347
2022-08-12T06:57:01.873Z,9.242454
2022-08-12T06:57:57.206Z,9.242498
2022-08-12T06:58:32.378Z,9.242327
2022-08-12T06:59:31.384Z,9.242407
2022-08-12T07:00:32.738Z,9.242348
2022-08-12T07:01:31.401Z,9.242279
2022-08-12T07:02:36.348Z,9.242360
2022-08-12T07:03:33.356Z,9.242392
2022-08-12T07:04:39.465Z,9.242414
2022-08-12T07:05:33.350Z,9.242410
2022-08-12T07:06:31.326Z,9.242493
2022-08-12T07:07:31.409Z,9.242392
2022-08-12T07:08:31.317Z,9.242415
2022-08-12T07:10:02.816Z,9.242433
2022-08-12T07:10:32.592Z,9.242466
2022-08-12T07:11:31.370Z,9.242570
2022-08-12T07:12:31.574Z,9.242527
2022-08-12T07:13:31.273Z,9.242474
2022-08-12T07:14:31.596Z,9.242440
2022-08-12T07:15:31.284Z,9.242512
2022-08-12T07:16:31.276Z,9.242391
2022-08-12T07:17:31.293Z,9.242501
2022-08-12T07:18:31.271Z,9.242444
2022-08-12T07:19:40.651Z,9.242579
2022-08-12T07:20:51.792Z,9.242440
2022-08-12T07:22:00.283Z,9.242432
2022-08-12T07:22:32.258Z,9.242423
2022-08-12T07:23:31.244Z,9.242395
2022-08-12T07:24:31.214Z,9.242449
2022-08-12T07:25:31.207Z,9.242391
2022-08-12T07:26:32.201Z,9.242463
2022-08-12T07:27:31.321Z,9.242488
2022-08-12T07:28:31.582Z,9.242517
2022-08-12T07:29:57.839Z,9.242507
2022-08-12T07:30:32.175Z,9.242696
2022-08-12T07:31:31.195Z,9.242646
2022-08-12T07:32:31.193Z,9.242504
2022-08-12T07:33:31.167Z,9.242424
2022-08-12T07:34:31.162Z,9.242445
2022-08-12T07:35:31.141Z,9.242442
2022-08-12T07:36:31.135Z,9.242496
2022-08-12T07:37:31.124Z,9.242450
2022-08-12T07:38:31.137Z,9.242338
2022-08-12T07:39:31.173Z,9.242389
2022-08-12T07:40:31.104Z,9.242389
2022-08-12T07:41:31.111Z,9.242496
2022-08-12T07:42:31.127Z,9.242367
2022-08-12T07:43:31.104Z,9.242420
2022-08-12T07:44:31.090Z,9.242445
2022-08-12T07:45:31.096Z,9.242449
2022-08-12T07:46:31.055Z,9.242466
2022-08-12T07:47:31.115Z,9.242472
2022-08-12T07:48:32.014Z,9.242366
2022-08-12T07:49:31.038Z,9.242435
2022-08-12T07:50:31.029Z,9.242434
2022-08-12T07:51:31.039Z,9.242396
2022-08-12T07:52:31.072Z,9.242412
2022-08-12T07:53:31.129Z,9.242392
2022-08-12T07:54:30.992Z,9.242408
2022-08-12T07:55:31.002Z,9.242380
2022-08-12T07:56:31.006Z,9.242374
2022-08-12T07:57:30.981Z,9.242400
2022-08-12T07:58:31.009Z,9.242428
2022-08-12T07:59:30.964Z,9.242417
2022-08-12T08:00:30.963Z,9.242330
2022-08-12T08:01:31.004Z,9.242356
2022-08-12T08:02:31.109Z,9.242428
2022-08-12T08:03:30.942Z,9.242403
2022-08-12T08:04:30.958Z,9.242410
2022-08-12T08:05:30.921Z,9.242422
2022-08-12T08:06:30.942Z,9.242367
2022-08-12T08:07:31.179Z,9.242395
2022-08-12T08:08:30.912Z,9.242387
2022-08-12T08:09:31.543Z,9.242343
2022-08-12T08:10:30.887Z,9.242415
2022-08-12T08:11:30.880Z,9.242415
2022-08-12T08:12:30.872Z,9.242381
2022-08-12T08:13:30.869Z,9.242422
2022-08-12T08:14:30.886Z,9.242435
2022-08-12T08:16:00.706Z,9.242410
2022-08-12T08:16:32.856Z,9.242385
2022-08-12T08:17:30.819Z,9.242368
2022-08-12T08:18:30.838Z,9.242407
2022-08-12T08:19:30.839Z,9.242408
2022-08-12T08:20:30.816Z,9.242367
2022-08-12T08:21:30.810Z,9.242343
2022-08-12T08:22:41.022Z,9.242318
2022-08-12T08:23:35.178Z,9.242339
2022-08-12T08:24:31.810Z,9.242373
2022-08-12T08:25:35.618Z,9.242377
2022-08-12T08:26:30.785Z,9.242435
2022-08-12T08:27:30.771Z,9.242454
2022-08-12T08:28:30.759Z,9.242403
2022-08-12T08:29:30.776Z,9.242367
2022-08-12T08:30:30.744Z,9.242445
2022-08-12T08:31:30.748Z,9.242367
2022-08-12T08:32:30.812Z,9.242377
2022-08-12T08:34:04.733Z,9.242353
2022-08-12T08:34:52.944Z,9.242359
2022-08-12T08:35:46.445Z,9.242435
2022-08-12T08:36:31.703Z,9.242352
2022-08-12T08:37:33.452Z,9.242418
2022-08-12T08:38:34.653Z,9.242378
2022-08-12T08:39:30.753Z,9.242450
2022-08-12T08:40:30.670Z,9.242314
2022-08-12T08:42:17.367Z,9.242435
2022-08-12T08:42:31.667Z,9.242380
2022-08-12T08:43:44.345Z,9.242386
2022-08-12T08:44:31.675Z,9.242387
2022-08-12T08:45:30.642Z,9.242426
2022-08-12T08:46:30.629Z,9.242402
2022-08-12T08:47:30.620Z,9.242351
2022-08-12T08:48:30.653Z,9.242389
2022-08-12T08:49:30.602Z,9.242402
2022-08-12T08:50:30.628Z,9.242407
2022-08-12T08:51:30.583Z,9.242438
2022-08-12T08:52:39.411Z,9.242487
2022-08-12T08:53:31.581Z,9.242429
2022-08-12T08:54:30.574Z,9.242431
2022-08-12T08:56:01.379Z,9.242393
2022-08-12T08:56:32.561Z,9.242419
2022-08-12T08:57:43.584Z,9.242355
2022-08-12T08:58:31.545Z,9.242353
2022-08-12T08:59:30.534Z,9.242397
2022-08-12T09:00:30.559Z,9.242461
2022-08-12T09:01:37.757Z,9.242477
2022-08-12T09:02:31.554Z,9.242359
2022-08-12T09:04:21.246Z,9.242443
2022-08-12T09:05:10.950Z,9.242490
2022-08-12T09:06:01.638Z,9.242440
2022-08-12T09:06:38.163Z,9.242441
2022-08-12T09:07:51.928Z,9.242440
2022-08-12T09:08:31.467Z,9.242456
2022-08-12T09:10:01.357Z,9.242469
2022-08-12T09:10:32.621Z,9.242393
2022-08-12T09:12:06.845Z,9.242425
2022-08-12T09:12:31.499Z,9.242435
2022-08-12T09:14:11.289Z,9.242442
2022-08-12T09:14:31.433Z,9.242388
2022-08-12T09:15:35.808Z,9.242358
2022-08-12T09:16:33.308Z,9.242413
2022-08-12T09:17:42.772Z,9.242443
2022-08-12T09:18:33.631Z,9.242516
2022-08-12T09:19:30.401Z,9.242478
2022-08-12T09:20:30.389Z,9.242476
2022-08-12T09:21:30.398Z,9.242419
2022-08-12T09:22:31.372Z,9.242357
2022-08-12T09:23:59.195Z,9.242402
2022-08-12T09:24:31.889Z,9.242461
2022-08-12T09:25:33.529Z,9.242460
2022-08-12T09:26:30.374Z,9.242482
2022-08-12T09:28:15.516Z,9.242435
2022-08-12T09:28:32.374Z,9.242443
2022-08-12T09:30:10.970Z,9.242513
2022-08-12T09:30:41.205Z,9.242456
2022-08-12T09:32:07.856Z,9.242406
2022-08-12T09:33:04.439Z,9.242366
2022-08-12T09:34:25.390Z,9.242430
2022-08-12T09:34:33.991Z,9.242435
2022-08-12T09:35:32.285Z,9.242433
2022-08-12T09:37:01.101Z,9.242519
2022-08-12T09:37:58.223Z,9.242341
2022-08-12T09:38:31.991Z,9.242399
2022-08-12T09:40:01.892Z,9.242347
2022-08-12T09:40:58.040Z,9.242436
2022-08-12T09:42:34.538Z,9.242409
2022-08-12T09:42:41.049Z,9.242356
2022-08-12T09:43:31.278Z,9.242409
2022-08-12T09:44:39.492Z,9.242400
2022-08-12T09:46:19.667Z,9.242326
2022-08-12T09:46:31.291Z,9.242329
2022-08-12T09:47:33.539Z,9.242348
2022-08-12T09:48:35.246Z,9.242322
2022-08-12T09:49:30.188Z,9.242355
2022-08-12T09:50:30.186Z,9.242391
2022-08-12T09:51:38.350Z,9.242341
2022-08-12T09:52:31.998Z,9.242396
2022-08-12T09:53:38.556Z,9.242352
2022-08-12T09:54:34.929Z,9.242319
2022-08-12T09:56:06.258Z,9.242319
2022-08-12T09:56:58.682Z,9.242337
2022-08-12T09:58:46.679Z,9.242434
2022-08-12T09:58:57.695Z,9.242431
2022-08-12T10:00:15.967Z,9.242388
2022-08-12T10:00:43.186Z,9.242326
2022-08-12T10:01:35.626Z,9.242311
2022-08-12T10:02:42.083Z,9.242281
2022-08-12T10:03:31.468Z,9.242273
2022-08-12T10:04:30.462Z,9.242228
2022-08-12T10:06:27.871Z,9.242353
2022-08-12T10:06:32.211Z,9.242326
2022-08-12T10:07:39.794Z,9.242441
2022-08-12T10:08:31.091Z,9.242381
2022-08-12T10:09:56.935Z,9.242384
2022-08-12T10:10:31.043Z,9.242346
2022-08-12T10:11:30.043Z,9.242366
2022-08-12T10:12:33.418Z,9.242372
2022-08-12T10:13:35.874Z,9.242219
2022-08-12T10:14:33.338Z,9.242241
2022-08-12T10:16:00.992Z,9.242316
2022-08-12T10:16:34.007Z,9.242365
2022-08-12T10:17:31.058Z,9.242470
2022-08-12T10:18:30.003Z,9.242400
2022-08-12T10:19:36.731Z,9.242329
2022-08-12T10:20:30.978Z,9.242321
2022-08-12T10:21:36.343Z,9.242388
2022-08-12T10:22:38.815Z,9.242413
2022-08-12T10:23:40.003Z,9.242309
2022-08-12T10:24:30.957Z,9.242277
2022-08-12T10:26:18.291Z,9.242267
2022-08-12T10:26:37.787Z,9.242291
2022-08-12T10:28:03.518Z,9.242362
2022-08-12T10:28:32.001Z,9.242347
2022-08-12T10:30:03.822Z,9.242368
2022-08-12T10:30:40.165Z,9.242311
2022-08-12T10:31:47.403Z,9.242316
2022-08-12T10:32:43.913Z,9.242330
2022-08-12T10:33:32.282Z,9.242339
2022-08-12T10:34:29.884Z,9.242383
2022-08-12T10:35:30.394Z,9.242397
2022-08-12T10:36:40.580Z,9.242373
2022-08-12T10:38:34.719Z,9.242313
2022-08-12T10:38:36.642Z,9.242333
2022-08-12T10:40:01.022Z,9.242316
2022-08-12T10:40:33.096Z,9.242324
2022-08-12T10:41:56.537Z,9.242358
2022-08-12T10:42:30.858Z,9.242356
2022-08-12T10:43:29.882Z,9.242339
2022-08-12T10:44:30.937Z,9.242332
2022-08-12T10:45:30.622Z,9.242317
2022-08-12T10:46:30.551Z,9.242332
2022-08-12T10:48:19.164Z,9.242326
2022-08-12T10:48:34.195Z,9.242335
2022-08-12T10:50:02.488Z,9.242334
2022-08-12T10:50:56.257Z,9.242349
2022-08-12T10:52:04.973Z,9.242270
2022-08-12T10:52:34.903Z,9.242334
2022-08-12T10:53:44.966Z,9.242359
2022-08-12T10:54:30.790Z,9.242294
2022-08-12T10:55:29.815Z,9.242321
2022-08-12T10:56:34.557Z,9.242280
2022-08-12T10:58:14.199Z,9.242329
2022-08-12T10:58:31.809Z,9.242249
2022-08-12T11:00:01.327Z,9.242112
2022-08-12T11:00:35.742Z,9.242216
2022-08-12T11:04:16.732Z,9.242174
2022-08-12T11:04:27.266Z,9.242303
2022-08-12T11:04:32.100Z,9.242309
2022-08-12T11:04:44.986Z,9.242354
2022-08-12T11:07:03.144Z,9.242279
2022-08-12T11:07:10.015Z,9.242296
2022-08-12T11:08:35.907Z,9.242337
2022-08-12T11:08:36.097Z,9.242393
2022-08-12T11:09:42.011Z,9.242393
2022-08-12T11:10:30.763Z,9.242353
2022-08-12T11:12:34.817Z,9.242385
2022-08-12T11:12:57.008Z,9.242371
2022-08-12T11:13:45.751Z,9.242349
2022-08-12T11:14:49.515Z,9.242257
2022-08-12T11:16:03.295Z,9.242291
2022-08-12T11:16:30.718Z,9.242318
2022-08-12T11:17:44.010Z,9.242221
2022-08-12T11:18:30.678Z,9.242406
2022-08-12T11:19:33.088Z,9.242404
2022-08-12T11:20:31.208Z,9.242432
2022-08-12T11:21:56.071Z,9.242335
2022-08-12T11:22:30.607Z,9.242309
2022-08-12T11:23:36.628Z,9.242332
2022-08-12T11:24:32.382Z,9.242363
2022-08-12T11:25:55.677Z,9.242352
2022-08-12T11:26:30.566Z,9.242386
2022-08-12T11:27:29.691Z,9.242401
2022-08-12T11:28:34.541Z,9.242444
2022-08-12T11:30:06.209Z,9.242409
2022-08-12T11:30:32.100Z,9.242331
2022-08-12T11:31:29.550Z,9.242354
2022-08-12T11:32:30.531Z,9.242279
2022-08-12T11:34:06.568Z,9.242244
2022-08-12T11:34:52.005Z,9.242451
2022-08-12T11:35:30.629Z,9.242397
2022-08-12T11:36:29.489Z,9.242445
2022-08-12T11:37:29.463Z,9.242430
2022-08-12T11:38:29.469Z,9.242409
2022-08-12T11:40:02.857Z,9.242418
2022-08-12T11:40:30.503Z,9.242473
2022-08-12T11:41:31.352Z,9.242372
2022-08-12T11:42:32.553Z,9.242434
2022-08-12T11:43:30.915Z,9.242454
2022-08-12T11:44:37.217Z,9.242374